Terminal Aerodrome Forecast
Issued by NWS Wilmington, NC

Home | Current Version | Previous Version | Text Only | Print | Product List | Glossary On
Versions: 1 2 3 4 5 6 7 8 9 10 11 12
000
FTUS42 KILM 211722
TAFMYR
TAF
KMYR 211722Z 2118/2218 08009KT P6SM BKN250
     FM212300 VRB03KT P6SM BKN250
     FM220900 VRB03KT 3SM BR BKN250
     FM221300 11009KT P6SM BKN250=

USA.gov is the U.S. government's official web portal to all federal, state and local government web resources and services.